createdAt,value
2023-04-24T00:02:14.925Z,11.00
2023-04-24T00:05:03.679Z,11.00
2023-04-24T00:07:56.465Z,11.00
2023-04-24T00:10:45.884Z,11.00
2023-04-24T00:13:34.571Z,11.00
2023-04-24T00:16:23.912Z,11.20
2023-04-24T00:19:13.946Z,11.10
2023-04-24T00:22:03.999Z,11.10
2023-04-24T00:24:52.864Z,11.00
2023-04-24T00:27:41.455Z,11.00
2023-04-24T00:30:30.713Z,10.80
2023-04-24T00:33:19.894Z,10.80
2023-04-24T00:36:09.370Z,10.80
2023-04-24T00:38:58.584Z,10.90
2023-04-24T00:41:49.167Z,10.90
2023-04-24T00:44:38.464Z,10.80
2023-04-24T00:47:27.961Z,10.80
2023-04-24T00:50:17.676Z,10.70
2023-04-24T00:53:06.823Z,10.50
2023-04-24T00:55:55.712Z,10.50
2023-04-24T00:58:45.857Z,10.40
2023-04-24T01:01:34.692Z,10.40
2023-04-24T01:04:23.750Z,10.50
2023-04-24T01:07:13.224Z,10.40
2023-04-24T01:10:01.860Z,10.30
2023-04-24T01:12:53.881Z,10.30
2023-04-24T01:15:42.630Z,10.30
2023-04-24T01:18:32.147Z,10.30
2023-04-24T01:21:22.744Z,10.30
2023-04-24T01:24:13.947Z,10.40
2023-04-24T01:27:02.790Z,10.40
2023-04-24T01:29:53.038Z,10.40
2023-04-24T01:32:45.641Z,10.40
2023-04-24T01:35:34.608Z,10.40
2023-04-24T01:38:24.024Z,10.40
2023-04-24T01:41:12.830Z,10.40
2023-04-24T01:44:02.917Z,10.30
2023-04-24T01:46:52.073Z,10.30
2023-04-24T01:49:41.391Z,10.30
2023-04-24T01:52:32.367Z,10.20
2023-04-24T01:55:21.127Z,10.00
2023-04-24T01:58:09.548Z,9.90
2023-04-24T02:01:00.020Z,9.90
2023-04-24T02:03:48.905Z,10.00
2023-04-24T02:06:38.315Z,10.10
2023-04-24T02:09:26.942Z,10.10
2023-04-24T02:12:16.475Z,10.10
2023-04-24T02:15:07.572Z,10.10
2023-04-24T02:18:00.788Z,10.00
2023-04-24T02:20:50.004Z,10.10
2023-04-24T02:23:38.694Z,10.20
2023-04-24T02:26:28.109Z,10.20
2023-04-24T02:29:16.721Z,10.20
2023-04-24T02:32:05.836Z,10.20
2023-04-24T02:34:56.268Z,10.20
2023-04-24T02:37:45.487Z,10.10
2023-04-24T02:40:34.684Z,10.10
2023-04-24T02:43:23.191Z,10.00
2023-04-24T02:46:12.497Z,10.00
2023-04-24T02:49:01.947Z,10.00
2023-04-24T02:51:50.393Z,10.00
2023-04-24T02:54:39.699Z,10.10
2023-04-24T02:57:28.806Z,10.10
2023-04-24T03:00:17.916Z,10.20
2023-04-24T03:03:08.273Z,10.20
2023-04-24T03:05:58.189Z,10.20
2023-04-24T03:08:47.099Z,10.30
2023-04-24T03:11:35.978Z,10.30
2023-04-24T03:14:25.211Z,10.30
2023-04-24T03:17:14.007Z,10.30
2023-04-24T03:20:03.510Z,10.20
2023-04-24T03:22:52.831Z,10.30
2023-04-24T03:25:43.842Z,10.30
2023-04-24T03:28:34.017Z,10.40
2023-04-24T03:31:26.711Z,10.50
2023-04-24T03:34:15.385Z,10.50
2023-04-24T03:37:04.547Z,10.50
2023-04-24T03:39:55.082Z,10.50
2023-04-24T03:42:46.769Z,10.60
2023-04-24T03:45:35.229Z,10.60
2023-04-24T03:48:24.870Z,10.70
2023-04-24T03:51:13.522Z,10.70
2023-04-24T03:54:05.919Z,10.60
2023-04-24T03:56:57.746Z,10.60
2023-04-24T03:59:49.037Z,10.60
2023-04-24T04:02:41.406Z,10.70
2023-04-24T04:05:32.372Z,10.70
2023-04-24T04:08:20.823Z,10.80
2023-04-24T04:11:10.950Z,11.00
2023-04-24T04:14:00.224Z,11.10
2023-04-24T04:16:49.277Z,11.10
2023-04-24T04:19:38.244Z,11.20
2023-04-24T04:22:26.669Z,11.20
2023-04-24T04:25:15.327Z,11.20
2023-04-24T04:28:05.413Z,11.20
2023-04-24T04:30:58.568Z,11.20
2023-04-24T04:33:48.091Z,11.30
2023-04-24T04:36:38.039Z,11.20
2023-04-24T04:39:45.916Z,11.00
2023-04-24T04:42:41.522Z,10.70
2023-04-24T04:45:31.812Z,10.60
2023-04-24T04:48:41.628Z,10.60
2023-04-24T04:51:31.276Z,10.60
2023-04-24T04:54:20.591Z,10.60
2023-04-24T04:57:10.405Z,10.70
2023-04-24T04:59:59.636Z,10.80
2023-04-24T05:03:09.388Z,10.90
2023-04-24T05:06:10.362Z,10.90
2023-04-24T05:09:01.092Z,10.90
2023-04-24T05:12:00.056Z,11.00
2023-04-24T05:14:50.940Z,11.10
2023-04-24T05:17:41.889Z,11.20
2023-04-24T05:20:31.183Z,11.30
2023-04-24T05:23:20.104Z,11.40
2023-04-24T05:26:12.642Z,11.50
2023-04-24T05:29:02.519Z,11.50
2023-04-24T05:31:51.559Z,11.50
2023-04-24T05:34:41.125Z,11.40
2023-04-24T05:37:30.311Z,11.40
2023-04-24T05:40:18.706Z,11.40
2023-04-24T05:43:08.465Z,11.50
2023-04-24T05:45:57.481Z,11.50
2023-04-24T05:48:46.768Z,11.60
2023-04-24T05:51:35.410Z,11.60
2023-04-24T05:54:24.809Z,11.60
2023-04-24T05:57:14.593Z,11.70
2023-04-24T06:00:21.147Z,11.70
2023-04-24T06:03:18.661Z,11.70
2023-04-24T06:06:10.048Z,11.70
2023-04-24T06:09:00.163Z,11.70
2023-04-24T06:11:53.992Z,11.60
2023-04-24T06:14:46.089Z,11.70
2023-04-24T06:17:42.649Z,11.70
2023-04-24T06:20:31.647Z,11.60
2023-04-24T06:23:20.221Z,11.60
2023-04-24T06:26:11.389Z,11.70
2023-04-24T06:29:01.344Z,11.90
2023-04-24T06:31:50.538Z,12.00
2023-04-24T06:34:40.002Z,12.20
2023-04-24T06:37:29.462Z,12.20
2023-04-24T06:40:21.584Z,12.30
2023-04-24T06:43:10.822Z,12.30
2023-04-24T06:46:00.331Z,12.40
2023-04-24T06:48:49.386Z,12.50
2023-04-24T06:51:38.255Z,12.40
2023-04-24T06:54:27.078Z,12.40
2023-04-24T06:57:17.304Z,12.40
2023-04-24T07:00:08.314Z,12.20
2023-04-24T07:02:58.757Z,12.20
2023-04-24T07:05:49.248Z,12.20
2023-04-24T07:08:37.809Z,12.30
2023-04-24T07:11:30.470Z,12.30
2023-04-24T07:14:19.956Z,12.40
2023-04-24T07:17:08.694Z,12.40
2023-04-24T07:19:57.473Z,12.40
2023-04-24T07:22:46.833Z,12.40
2023-04-24T07:25:36.249Z,12.50
2023-04-24T07:28:24.771Z,12.60
2023-04-24T07:31:13.718Z,12.60
2023-04-24T07:34:03.379Z,12.70
2023-04-24T07:36:52.939Z,12.70
2023-04-24T07:39:42.786Z,12.70
2023-04-24T07:42:32.063Z,12.60
2023-04-24T07:45:21.708Z,12.60
2023-04-24T07:48:10.675Z,12.40
2023-04-24T07:51:00.510Z,12.40
2023-04-24T07:53:48.899Z,12.40
2023-04-24T07:56:40.451Z,12.50
2023-04-24T07:59:29.777Z,12.50
2023-04-24T08:02:18.608Z,12.50
2023-04-24T08:05:08.121Z,12.50
2023-04-24T08:07:57.644Z,12.60
2023-04-24T08:10:46.902Z,12.60
2023-04-24T08:13:36.375Z,12.50
2023-04-24T08:16:25.349Z,12.50
2023-04-24T08:19:13.944Z,12.40
2023-04-24T08:22:02.959Z,12.40
2023-04-24T08:24:53.177Z,12.40
2023-04-24T08:27:41.683Z,12.40
2023-04-24T08:30:30.457Z,12.20
2023-04-24T08:33:20.314Z,12.20
2023-04-24T08:36:09.333Z,12.30
2023-04-24T08:38:58.198Z,12.40
2023-04-24T08:41:47.773Z,12.40
2023-04-24T08:44:38.424Z,12.30
2023-04-24T08:47:28.914Z,12.20
2023-04-24T08:50:18.741Z,12.20
2023-04-24T08:53:08.812Z,12.40
2023-04-24T08:55:57.962Z,12.50
2023-04-24T08:58:47.723Z,12.50
2023-04-24T09:01:38.615Z,12.50
2023-04-24T09:04:29.302Z,12.50
2023-04-24T09:07:21.300Z,12.60
2023-04-24T09:10:36.214Z,12.60
2023-04-24T09:13:26.050Z,12.60
2023-04-24T09:16:15.885Z,12.70
2023-04-24T09:19:04.815Z,12.80
2023-04-24T09:21:55.235Z,12.70
2023-04-24T09:24:44.390Z,12.70
2023-04-24T09:27:34.302Z,12.60
2023-04-24T09:30:24.247Z,12.60
2023-04-24T09:33:17.217Z,13.00
2023-04-24T09:36:07.586Z,14.00
2023-04-24T09:39:00.585Z,14.50
2023-04-24T09:41:54.112Z,14.50
2023-04-24T09:44:42.749Z,14.90
2023-04-24T09:47:41.846Z,15.00
2023-04-24T09:50:33.277Z,15.80
2023-04-24T09:53:27.265Z,16.00
2023-04-24T09:56:16.300Z,16.50
2023-04-24T09:59:08.655Z,16.50
2023-04-24T10:02:00.005Z,15.90
2023-04-24T10:05:00.610Z,15.90
2023-04-24T10:07:53.180Z,16.20
2023-04-24T10:10:44.903Z,16.70
2023-04-24T10:13:34.493Z,17.00
2023-04-24T10:16:25.045Z,17.10
2023-04-24T10:19:16.251Z,17.40
2023-04-24T10:22:07.688Z,17.50
2023-04-24T10:25:00.079Z,17.50
2023-04-24T10:27:49.980Z,17.80
2023-04-24T10:30:40.684Z,17.90
2023-04-24T10:33:31.716Z,17.90
2023-04-24T10:36:23.020Z,18.10
2023-04-24T10:39:14.630Z,17.70
2023-04-24T10:42:02.984Z,17.70
2023-04-24T10:44:52.419Z,17.80
2023-04-24T10:47:42.481Z,17.90
2023-04-24T10:50:52.778Z,17.80
2023-04-24T10:53:41.784Z,17.70
2023-04-24T10:56:31.508Z,18.00
2023-04-24T10:59:28.301Z,18.20
2023-04-24T11:02:17.744Z,18.30
2023-04-24T11:05:07.961Z,18.50
2023-04-24T11:08:17.308Z,18.90
2023-04-24T11:11:17.333Z,19.00
2023-04-24T11:14:10.676Z,18.70
2023-04-24T11:16:59.311Z,18.50
2023-04-24T11:19:53.575Z,18.30
2023-04-24T11:22:44.330Z,18.40
2023-04-24T11:25:33.971Z,18.50
2023-04-24T11:28:26.339Z,18.60
2023-04-24T11:31:39.614Z,18.90
2023-04-24T11:34:28.555Z,19.00
2023-04-24T11:37:17.952Z,19.10
2023-04-24T11:40:08.636Z,18.70
2023-04-24T11:43:02.244Z,18.20
2023-04-24T11:45:50.961Z,18.10
2023-04-24T11:48:41.454Z,18.20
2023-04-24T11:51:33.785Z,18.40
2023-04-24T11:54:30.272Z,18.40
2023-04-24T11:57:22.828Z,18.30
2023-04-24T12:00:35.621Z,18.20
2023-04-24T12:03:25.299Z,18.10
2023-04-24T12:06:15.086Z,18.20
2023-04-24T12:09:11.382Z,18.10
2023-04-24T12:12:08.443Z,18.00
2023-04-24T12:14:58.468Z,18.00
2023-04-24T12:17:48.376Z,17.90
2023-04-24T12:20:37.244Z,17.50
2023-04-24T12:23:37.061Z,17.30
2023-04-24T12:26:26.880Z,17.20
2023-04-24T12:29:22.414Z,17.60
2023-04-24T12:32:18.354Z,17.80
2023-04-24T12:35:07.838Z,17.80
2023-04-24T12:37:57.395Z,17.80
2023-04-24T12:40:45.842Z,17.80
2023-04-24T12:43:36.297Z,17.90
2023-04-24T12:46:25.203Z,18.00
2023-04-24T12:49:14.385Z,17.90
2023-04-24T12:52:06.524Z,17.70
2023-04-24T12:54:57.004Z,17.60
2023-04-24T12:57:46.424Z,17.40
2023-04-24T13:00:35.625Z,17.50
2023-04-24T13:03:25.407Z,17.70
2023-04-24T13:06:14.331Z,17.80
2023-04-24T13:09:03.262Z,17.80
2023-04-24T13:11:52.154Z,17.90
2023-04-24T13:14:41.616Z,18.00
2023-04-24T13:17:30.583Z,18.10
2023-04-24T13:20:19.344Z,18.30
2023-04-24T13:23:08.132Z,18.20
2023-04-24T13:25:59.489Z,17.90
2023-04-24T13:28:48.891Z,17.70
2023-04-24T13:31:37.778Z,17.70
2023-04-24T13:34:27.297Z,17.60
2023-04-24T13:37:16.050Z,17.60
2023-04-24T13:40:07.268Z,17.70
2023-04-24T13:42:56.781Z,17.80
2023-04-24T13:45:46.354Z,17.70
2023-04-24T13:48:35.372Z,17.70
2023-04-24T13:51:28.350Z,17.70
2023-04-24T13:54:17.297Z,17.80
2023-04-24T13:57:06.819Z,17.90
2023-04-24T13:59:57.476Z,17.90
2023-04-24T14:02:46.154Z,18.10
2023-04-24T14:05:36.299Z,18.30
2023-04-24T14:08:26.493Z,18.40
2023-04-24T14:11:16.408Z,18.30
2023-04-24T14:14:05.554Z,18.10
2023-04-24T14:16:54.234Z,18.00
2023-04-24T14:19:43.674Z,18.10
2023-04-24T14:22:33.072Z,18.10
2023-04-24T14:25:21.666Z,17.80
2023-04-24T14:28:10.516Z,17.70
2023-04-24T14:30:59.445Z,17.60
2023-04-24T14:33:47.870Z,17.70
2023-04-24T14:36:37.810Z,17.90
2023-04-24T14:39:27.885Z,18.00
2023-04-24T14:42:17.989Z,18.20
2023-04-24T14:45:06.791Z,18.30
2023-04-24T14:47:56.652Z,18.40
2023-04-24T14:50:46.368Z,18.40
2023-04-24T14:53:35.062Z,18.20
2023-04-24T14:56:25.155Z,18.30
2023-04-24T14:59:15.407Z,18.30
2023-04-24T15:02:15.599Z,18.10
2023-04-24T15:05:05.787Z,17.90
2023-04-24T15:07:55.360Z,17.90
2023-04-24T15:10:44.434Z,17.90
2023-04-24T15:13:33.469Z,17.80
2023-04-24T15:16:22.400Z,17.70
2023-04-24T15:19:11.933Z,17.70
2023-04-24T15:22:00.423Z,17.80
2023-04-24T15:24:49.427Z,17.80
2023-04-24T15:27:43.978Z,17.80
2023-04-24T15:30:33.477Z,17.70
2023-04-24T15:33:22.860Z,17.50
2023-04-24T15:36:12.098Z,17.50
2023-04-24T15:39:05.241Z,17.40
2023-04-24T15:41:56.552Z,17.30
2023-04-24T15:44:46.049Z,17.30
2023-04-24T15:47:35.172Z,17.30
2023-04-24T15:50:24.796Z,17.30
2023-04-24T15:53:13.726Z,17.30
2023-04-24T15:56:02.664Z,17.40
2023-04-24T15:58:51.650Z,17.40
2023-04-24T16:01:41.378Z,17.40
2023-04-24T16:04:30.473Z,17.30
2023-04-24T16:07:19.121Z,17.30
2023-04-24T16:10:09.234Z,17.20
2023-04-24T16:13:01.098Z,17.10
2023-04-24T16:15:50.645Z,17.00
2023-04-24T16:18:40.145Z,17.00
2023-04-24T16:21:29.497Z,17.00
2023-04-24T16:24:17.921Z,17.00
2023-04-24T16:27:06.724Z,17.00
2023-04-24T16:29:57.182Z,16.90
2023-04-24T16:32:46.281Z,16.80
2023-04-24T16:35:35.246Z,16.80
2023-04-24T16:38:27.572Z,16.80
2023-04-24T16:41:17.281Z,16.80
2023-04-24T16:44:06.368Z,16.80
2023-04-24T16:46:55.869Z,16.80
2023-04-24T16:49:45.693Z,16.70
2023-04-24T16:52:35.385Z,16.70
2023-04-24T16:55:25.259Z,16.70
2023-04-24T16:58:14.143Z,16.90
2023-04-24T17:01:03.265Z,16.80
2023-04-24T17:03:52.688Z,16.70
2023-04-24T17:06:41.888Z,16.60
2023-04-24T17:09:31.133Z,16.60
2023-04-24T17:12:20.117Z,16.60
2023-04-24T17:15:09.168Z,16.50
2023-04-24T17:17:58.736Z,16.50
2023-04-24T17:20:47.829Z,16.50
2023-04-24T17:23:37.561Z,16.40
2023-04-24T17:26:27.150Z,16.30
2023-04-24T17:29:15.947Z,16.20
2023-04-24T17:32:04.831Z,16.10
2023-04-24T17:34:53.644Z,16.10
2023-04-24T17:37:42.048Z,16.00
2023-04-24T17:40:31.296Z,16.00
2023-04-24T17:43:24.085Z,15.90
2023-04-24T17:46:13.416Z,15.70
2023-04-24T17:49:01.915Z,15.70
2023-04-24T17:51:50.842Z,15.70
2023-04-24T17:54:39.790Z,15.60
2023-04-24T17:57:28.491Z,15.60
2023-04-24T18:00:17.746Z,15.60
2023-04-24T18:03:08.846Z,15.50
2023-04-24T18:05:58.527Z,15.40
2023-04-24T18:08:47.498Z,15.30
2023-04-24T18:11:35.990Z,15.30
2023-04-24T18:14:25.895Z,15.30
2023-04-24T18:17:14.395Z,15.40
2023-04-24T18:20:03.999Z,15.30
2023-04-24T18:22:52.665Z,15.20
2023-04-24T18:25:41.742Z,15.20
2023-04-24T18:28:31.730Z,15.10
2023-04-24T18:31:20.929Z,15.00
2023-04-24T18:34:10.255Z,15.00
2023-04-24T18:36:58.615Z,14.90
2023-04-24T18:39:47.586Z,14.80
2023-04-24T18:42:36.064Z,14.70
2023-04-24T18:45:24.815Z,14.70
2023-04-24T18:48:13.717Z,14.60
2023-04-24T18:51:02.596Z,14.50
2023-04-24T18:53:52.392Z,14.40
2023-04-24T18:56:41.674Z,14.30
2023-04-24T18:59:30.602Z,14.30
2023-04-24T19:02:19.636Z,14.20
2023-04-24T19:05:10.529Z,14.00
2023-04-24T19:08:00.217Z,13.90
2023-04-24T19:10:49.124Z,13.80
2023-04-24T19:13:37.569Z,13.70
2023-04-24T19:16:26.551Z,13.60
2023-04-24T19:19:16.367Z,13.60
2023-04-24T19:22:05.489Z,13.60
2023-04-24T19:24:54.516Z,13.50
2023-04-24T19:27:42.764Z,13.50
2023-04-24T19:30:31.616Z,13.40
2023-04-24T19:33:21.334Z,13.40
2023-04-24T19:36:10.856Z,13.40
2023-04-24T19:38:59.900Z,13.40
2023-04-24T19:41:49.320Z,13.40
2023-04-24T19:44:37.604Z,13.30
2023-04-24T19:47:26.606Z,13.20
2023-04-24T19:50:15.823Z,13.10
2023-04-24T19:53:06.602Z,13.10
2023-04-24T19:55:55.528Z,13.00
2023-04-24T19:58:44.818Z,12.80
2023-04-24T20:01:34.021Z,12.70
2023-04-24T20:04:23.683Z,12.60
2023-04-24T20:07:12.482Z,12.60
2023-04-24T20:10:01.751Z,12.60
2023-04-24T20:12:53.727Z,12.50
2023-04-24T20:15:42.642Z,12.50
2023-04-24T20:18:31.787Z,12.40
2023-04-24T20:21:45.220Z,12.20
2023-04-24T20:24:34.530Z,12.10
2023-04-24T20:27:23.299Z,12.00
2023-04-24T20:30:16.044Z,12.00
2023-04-24T20:33:05.622Z,12.00
2023-04-24T20:35:55.017Z,12.10
2023-04-24T20:38:43.510Z,12.10
2023-04-24T20:41:32.308Z,11.90
2023-04-24T20:44:21.556Z,11.60
2023-04-24T20:47:10.864Z,11.50
2023-04-24T20:50:02.348Z,11.50
2023-04-24T20:52:52.434Z,11.40
2023-04-24T20:55:41.847Z,11.40
2023-04-24T20:58:31.440Z,11.50
2023-04-24T21:01:20.548Z,11.50
2023-04-24T21:04:09.410Z,11.40
2023-04-24T21:06:58.362Z,11.30
2023-04-24T21:09:46.928Z,11.10
2023-04-24T21:12:35.823Z,11.00
2023-04-24T21:15:24.821Z,11.10
2023-04-24T21:18:13.745Z,11.00
2023-04-24T21:21:27.071Z,11.00
2023-04-24T21:24:15.781Z,10.90
2023-04-24T21:27:04.998Z,10.90
2023-04-24T21:29:54.383Z,10.90
2023-04-24T21:32:43.254Z,10.90
2023-04-24T21:35:31.639Z,10.90
2023-04-24T21:38:23.462Z,10.60
2023-04-24T21:41:12.722Z,10.50
2023-04-24T21:44:01.509Z,10.40
2023-04-24T21:46:51.224Z,10.50
2023-04-24T21:49:40.033Z,10.50
2023-04-24T21:52:28.803Z,10.60
2023-04-24T21:55:42.682Z,10.60
2023-04-24T21:58:31.801Z,10.60
2023-04-24T22:01:20.968Z,10.50
2023-04-24T22:04:10.444Z,10.30
2023-04-24T22:06:59.124Z,10.30
2023-04-24T22:09:47.620Z,10.30
2023-04-24T22:12:36.416Z,10.30
2023-04-24T22:15:28.394Z,10.20
2023-04-24T22:18:18.846Z,10.20
2023-04-24T22:21:07.865Z,10.20
2023-04-24T22:23:57.124Z,10.10
2023-04-24T22:26:46.247Z,10.10
2023-04-24T22:29:35.784Z,10.10
2023-04-24T22:32:24.825Z,10.20
2023-04-24T22:35:13.523Z,10.30
2023-04-24T22:38:02.356Z,10.30
2023-04-24T22:40:51.340Z,10.40
2023-04-24T22:43:40.663Z,10.40
2023-04-24T22:46:31.415Z,10.50
2023-04-24T22:49:21.767Z,10.50
2023-04-24T22:52:10.311Z,10.50
2023-04-24T22:54:59.184Z,10.40
2023-04-24T22:57:50.087Z,10.40
2023-04-24T23:00:38.845Z,10.30
2023-04-24T23:03:27.502Z,10.10
2023-04-24T23:06:15.989Z,10.00
2023-04-24T23:09:04.821Z,9.90
2023-04-24T23:11:53.533Z,9.90
2023-04-24T23:14:41.978Z,9.90
2023-04-24T23:17:30.393Z,9.90
2023-04-24T23:20:19.585Z,9.80
2023-04-24T23:23:08.983Z,9.70
2023-04-24T23:25:57.394Z,9.70
2023-04-24T23:28:46.095Z,9.60
2023-04-24T23:31:34.698Z,9.60
2023-04-24T23:34:23.346Z,9.60
2023-04-24T23:37:12.602Z,9.60
2023-04-24T23:40:01.578Z,9.60
2023-04-24T23:43:05.752Z,9.60
2023-04-24T23:45:55.957Z,9.50
2023-04-24T23:48:44.921Z,9.50
2023-04-24T23:51:33.346Z,9.60
2023-04-24T23:54:22.449Z,9.60
2023-04-24T23:57:10.761Z,9.60
